Anacortes, WA

9:36 PM PST on November 23, 2014 (GMT -0800)
above Lovric's | Change Station
CLOSE
Current Station
Personal Weather Station
Location: Anacortes, WA
Elevation: 60 ft
Nearby Weather Stations

Elev 60 ft 48.51 °N, 122.64 °W | Updated 59 seconds ago

Clear
Clear
45.8 °F
Feels Like 46 °F
N
2.0
Wind Variable Wind from WSW
Gusts 2.0 mph

Today
High -- | Low -- °F
--% Chance of Precip.
Yesterday
High -- | Low -- °F
Precip. -- in
7:30 AM 4:22 PM
Waxing Crescent, 4% visible
Pressure 30.28 in
Visibility 5.0 miles
Clouds Clear
Windchill 46 °F
Dew Point 46 °F
Humidity 100%
Rainfall 0.30 in
Snow Depth Not available.
UV 0 out of 12
Pollen .10 out of 12
Air Quality Not available.
Flu Activity Not available.
METAR KBVS 240515Z AUTO 00000KT 5SM CLR 04/04 A3028 RMK A01 P000

More Conditions Fewer Conditions

Pressure 30.28 in
Visibility 5.0 miles
Clouds Clear
Windchill 46 °F
Dew Point 46 °F
Humidity 100%
Rainfall 0.30 in
Snow Depth Not available.
UV 0 out of 12
Pollen .10 out of 12
Air Quality Not available.
Flu Activity Not available.
METAR KBVS 240515Z AUTO 00000KT 5SM CLR 04/04 A3028 RMK A01 P000

More Conditions Fewer Conditions

10-Day Weather Forecast

Almanac

Astronomy

Nov. 23, 2014 Rise Set
Actual Time
Civil Twilight
Nautical Twilight
Astronomical Twilight
Moon
Length of Visible Light
Length of Day
Tomorrow will be .
, % of the Moon is Illuminated

Today's Extremes

State Highs State Lows

Community

WunderPhotos

Upload Photos

1,773,279 photos uploaded!

WunderBlogs® & News

Nearby

Air Quality

  Air Quality AQ Index Pollutant
Not available.

Snow Depth

Station Depth Elevation

Earthquake Activity

City Distance Mag. Time & Date
Minimum magnitude displayed is 2.5.

Coastal Water Temperatures

Place Temperature

Nearby Weather Stations